sensor_id;sensor_type;location;lat;lon;timestamp;P1;durP1;ratioP1;P2;durP2;ratioP2
68577;SDS011;61668;45.388;11.784;2023-03-21T00:01:12;31.40;;;19.80;;
68577;SDS011;61668;45.388;11.784;2023-03-21T00:03:38;31.20;;;18.30;;
68577;SDS011;61668;45.388;11.784;2023-03-21T00:06:06;32.20;;;19.00;;
68577;SDS011;61668;45.388;11.784;2023-03-21T00:08:33;28.30;;;18.60;;
68577;SDS011;61668;45.388;11.784;2023-03-21T00:11:02;29.50;;;17.80;;
68577;SDS011;61668;45.388;11.784;2023-03-21T00:13:30;32.10;;;19.70;;
68577;SDS011;61668;45.388;11.784;2023-03-21T00:16:02;35.30;;;20.40;;
68577;SDS011;61668;45.388;11.784;2023-03-21T00:18:37;39.10;;;19.10;;
68577;SDS011;61668;45.388;11.784;2023-03-21T00:21:07;35.70;;;20.10;;
68577;SDS011;61668;45.388;11.784;2023-03-21T00:23:35;39.70;;;21.50;;
68577;SDS011;61668;45.388;11.784;2023-03-21T00:26:04;40.10;;;20.80;;
68577;SDS011;61668;45.388;11.784;2023-03-21T00:28:33;36.90;;;21.20;;
68577;SDS011;61668;45.388;11.784;2023-03-21T00:31:06;41.20;;;20.60;;
68577;SDS011;61668;45.388;11.784;2023-03-21T00:33:34;39.60;;;19.30;;
68577;SDS011;61668;45.388;11.784;2023-03-21T00:36:03;38.00;;;20.30;;
68577;SDS011;61668;45.388;11.784;2023-03-21T00:38:31;34.50;;;18.90;;
68577;SDS011;61668;45.388;11.784;2023-03-21T00:41:04;37.40;;;18.00;;
68577;SDS011;61668;45.388;11.784;2023-03-21T00:43:32;35.30;;;18.40;;
68577;SDS011;61668;45.388;11.784;2023-03-21T00:46:07;34.40;;;17.60;;
68577;SDS011;61668;45.388;11.784;2023-03-21T00:48:36;34.30;;;17.90;;
68577;SDS011;61668;45.388;11.784;2023-03-21T00:51:18;37.90;;;18.90;;
68577;SDS011;61668;45.388;11.784;2023-03-21T00:53:55;32.70;;;19.10;;
68577;SDS011;61668;45.388;11.784;2023-03-21T00:56:25;35.30;;;18.40;;
68577;SDS011;61668;45.388;11.784;2023-03-21T00:58:55;33.20;;;18.90;;
68577;SDS011;61668;45.388;11.784;2023-03-21T01:01:47;31.20;;;17.20;;
68577;SDS011;61668;45.388;11.784;2023-03-21T01:04:17;30.60;;;16.70;;
68577;SDS011;61668;45.388;11.784;2023-03-21T01:06:52;30.50;;;17.90;;
68577;SDS011;61668;45.388;11.784;2023-03-21T01:09:23;30.60;;;16.40;;
68577;SDS011;61668;45.388;11.784;2023-03-21T01:12:01;29.90;;;16.90;;
68577;SDS011;61668;45.388;11.784;2023-03-21T01:14:32;26.40;;;16.20;;
68577;SDS011;61668;45.388;11.784;2023-03-21T01:17:05;31.10;;;18.00;;
68577;SDS011;61668;45.388;11.784;2023-03-21T01:19:38;27.20;;;16.50;;
68577;SDS011;61668;45.388;11.784;2023-03-21T01:22:12;35.00;;;17.90;;
68577;SDS011;61668;45.388;11.784;2023-03-21T01:24:41;30.40;;;17.50;;
68577;SDS011;61668;45.388;11.784;2023-03-21T01:27:13;27.80;;;15.90;;
68577;SDS011;61668;45.388;11.784;2023-03-21T01:29:44;33.40;;;18.70;;
68577;SDS011;61668;45.388;11.784;2023-03-21T01:32:15;29.50;;;16.60;;
68577;SDS011;61668;45.388;11.784;2023-03-21T01:34:43;29.60;;;15.60;;
68577;SDS011;61668;45.388;11.784;2023-03-21T01:37:51;33.30;;;16.70;;
68577;SDS011;61668;45.388;11.784;2023-03-21T01:40:36;28.70;;;16.70;;
68577;SDS011;61668;45.388;11.784;2023-03-21T01:43:20;32.40;;;17.60;;
68577;SDS011;61668;45.388;11.784;2023-03-21T01:46:49;29.80;;;17.00;;
68577;SDS011;61668;45.388;11.784;2023-03-21T01:49:31;28.30;;;16.40;;
68577;SDS011;61668;45.388;11.784;2023-03-21T01:52:43;27.20;;;16.10;;
68577;SDS011;61668;45.388;11.784;2023-03-21T01:55:20;29.00;;;16.00;;
68577;SDS011;61668;45.388;11.784;2023-03-21T01:57:53;30.10;;;16.80;;
68577;SDS011;61668;45.388;11.784;2023-03-21T02:00:43;27.90;;;15.20;;
68577;SDS011;61668;45.388;11.784;2023-03-21T02:03:13;26.40;;;15.30;;
68577;SDS011;61668;45.388;11.784;2023-03-21T02:08:30;25.80;;;14.70;;
68577;SDS011;61668;45.388;11.784;2023-03-21T02:10:56;25.50;;;14.10;;
68577;SDS011;61668;45.388;11.784;2023-03-21T02:13:29;26.20;;;15.10;;
68577;SDS011;61668;45.388;11.784;2023-03-21T02:16:01;26.70;;;14.60;;
68577;SDS011;61668;45.388;11.784;2023-03-21T02:22:06;27.50;;;15.90;;
68577;SDS011;61668;45.388;11.784;2023-03-21T02:42:28;27.70;;;16.50;;
68577;SDS011;61668;45.388;11.784;2023-03-21T02:45:15;27.50;;;15.40;;
68577;SDS011;61668;45.388;11.784;2023-03-21T02:47:54;30.10;;;15.90;;
68577;SDS011;61668;45.388;11.784;2023-03-21T02:52:49;25.00;;;14.80;;
68577;SDS011;61668;45.388;11.784;2023-03-21T02:55:24;26.70;;;14.60;;
68577;SDS011;61668;45.388;11.784;2023-03-21T02:57:53;27.70;;;13.80;;
68577;SDS011;61668;45.388;11.784;2023-03-21T03:00:31;24.20;;;14.40;;
68577;SDS011;61668;45.388;11.784;2023-03-21T03:02:58;26.80;;;14.60;;
68577;SDS011;61668;45.388;11.784;2023-03-21T03:05:28;25.80;;;14.10;;
68577;SDS011;61668;45.388;11.784;2023-03-21T03:13:37;20.80;;;12.20;;
68577;SDS011;61668;45.388;11.784;2023-03-21T03:19:30;22.20;;;12.00;;
68577;SDS011;61668;45.388;11.784;2023-03-21T03:22:09;20.20;;;11.30;;
68577;SDS011;61668;45.388;11.784;2023-03-21T03:24:45;22.10;;;12.00;;
68577;SDS011;61668;45.388;11.784;2023-03-21T03:27:32;22.70;;;12.50;;
68577;SDS011;61668;45.388;11.784;2023-03-21T03:30:03;24.00;;;12.30;;
68577;SDS011;61668;45.388;11.784;2023-03-21T03:32:35;24.20;;;12.00;;
68577;SDS011;61668;45.388;11.784;2023-03-21T03:35:04;20.40;;;11.30;;
68577;SDS011;61668;45.388;11.784;2023-03-21T03:37:33;24.80;;;13.80;;
68577;SDS011;61668;45.388;11.784;2023-03-21T03:40:07;23.40;;;11.80;;
68577;SDS011;61668;45.388;11.784;2023-03-21T03:42:40;21.20;;;12.30;;
68577;SDS011;61668;45.388;11.784;2023-03-21T03:45:11;24.40;;;11.80;;
68577;SDS011;61668;45.388;11.784;2023-03-21T03:47:48;19.60;;;10.80;;
68577;SDS011;61668;45.388;11.784;2023-03-21T03:50:35;20.30;;;10.90;;
68577;SDS011;61668;45.388;11.784;2023-03-21T03:53:14;20.20;;;10.90;;
68577;SDS011;61668;45.388;11.784;2023-03-21T03:55:43;21.40;;;11.40;;
68577;SDS011;61668;45.388;11.784;2023-03-21T03:58:10;21.90;;;10.60;;
68577;SDS011;61668;45.388;11.784;2023-03-21T04:00:37;20.70;;;11.30;;
68577;SDS011;61668;45.388;11.784;2023-03-21T04:03:04;21.90;;;12.10;;
68577;SDS011;61668;45.388;11.784;2023-03-21T04:05:32;23.10;;;10.90;;
68577;SDS011;61668;45.388;11.784;2023-03-21T04:07:57;19.60;;;11.70;;
68577;SDS011;61668;45.388;11.784;2023-03-21T04:10:23;23.60;;;13.40;;
68577;SDS011;61668;45.388;11.784;2023-03-21T04:12:49;23.40;;;12.10;;
68577;SDS011;61668;45.388;11.784;2023-03-21T04:15:15;21.50;;;11.50;;
68577;SDS011;61668;45.388;11.784;2023-03-21T04:17:43;22.00;;;11.80;;
68577;SDS011;61668;45.388;11.784;2023-03-21T04:20:10;22.50;;;12.30;;
68577;SDS011;61668;45.388;11.784;2023-03-21T04:22:35;24.00;;;12.30;;
68577;SDS011;61668;45.388;11.784;2023-03-21T04:25:02;21.10;;;12.00;;
68577;SDS011;61668;45.388;11.784;2023-03-21T04:27:30;20.60;;;11.70;;
68577;SDS011;61668;45.388;11.784;2023-03-21T04:29:57;21.80;;;11.70;;
68577;SDS011;61668;45.388;11.784;2023-03-21T04:32:23;23.00;;;12.20;;
68577;SDS011;61668;45.388;11.784;2023-03-21T04:34:51;21.40;;;12.90;;
68577;SDS011;61668;45.388;11.784;2023-03-21T04:37:21;21.00;;;12.60;;
68577;SDS011;61668;45.388;11.784;2023-03-21T04:39:51;23.30;;;12.30;;
68577;SDS011;61668;45.388;11.784;2023-03-21T04:42:17;21.80;;;13.20;;
68577;SDS011;61668;45.388;11.784;2023-03-21T04:44:45;19.50;;;11.90;;
68577;SDS011;61668;45.388;11.784;2023-03-21T04:47:10;20.80;;;11.80;;
68577;SDS011;61668;45.388;11.784;2023-03-21T04:49:37;23.10;;;12.60;;
68577;SDS011;61668;45.388;11.784;2023-03-21T04:52:04;21.50;;;12.30;;
68577;SDS011;61668;45.388;11.784;2023-03-21T04:54:30;21.10;;;11.40;;
68577;SDS011;61668;45.388;11.784;2023-03-21T04:56:57;22.60;;;12.80;;
68577;SDS011;61668;45.388;11.784;2023-03-21T04:59:23;24.00;;;12.40;;
68577;SDS011;61668;45.388;11.784;2023-03-21T05:01:50;21.00;;;12.50;;
68577;SDS011;61668;45.388;11.784;2023-03-21T05:04:16;22.80;;;12.00;;
68577;SDS011;61668;45.388;11.784;2023-03-21T05:06:43;22.10;;;10.50;;
68577;SDS011;61668;45.388;11.784;2023-03-21T05:09:11;21.20;;;10.30;;
68577;SDS011;61668;45.388;11.784;2023-03-21T05:11:38;20.70;;;11.60;;
68577;SDS011;61668;45.388;11.784;2023-03-21T05:14:10;25.30;;;12.10;;
68577;SDS011;61668;45.388;11.784;2023-03-21T05:16:40;20.90;;;11.70;;
68577;SDS011;61668;45.388;11.784;2023-03-21T05:19:13;21.60;;;10.40;;
68577;SDS011;61668;45.388;11.784;2023-03-21T05:21:40;20.80;;;10.40;;
68577;SDS011;61668;45.388;11.784;2023-03-21T05:24:13;21.80;;;10.60;;
68577;SDS011;61668;45.388;11.784;2023-03-21T05:26:41;23.00;;;12.00;;
68577;SDS011;61668;45.388;11.784;2023-03-21T05:29:09;23.40;;;11.80;;
68577;SDS011;61668;45.388;11.784;2023-03-21T05:31:35;22.40;;;11.70;;
68577;SDS011;61668;45.388;11.784;2023-03-21T05:34:01;22.00;;;11.00;;
68577;SDS011;61668;45.388;11.784;2023-03-21T05:36:28;27.20;;;12.50;;
68577;SDS011;61668;45.388;11.784;2023-03-21T05:38:54;26.30;;;13.10;;
68577;SDS011;61668;45.388;11.784;2023-03-21T05:41:20;27.50;;;13.70;;
68577;SDS011;61668;45.388;11.784;2023-03-21T05:43:46;26.70;;;14.20;;
68577;SDS011;61668;45.388;11.784;2023-03-21T05:46:12;25.70;;;14.20;;
68577;SDS011;61668;45.388;11.784;2023-03-21T05:48:38;23.70;;;13.20;;
68577;SDS011;61668;45.388;11.784;2023-03-21T05:51:04;25.50;;;13.90;;
68577;SDS011;61668;45.388;11.784;2023-03-21T05:53:30;27.00;;;14.30;;
68577;SDS011;61668;45.388;11.784;2023-03-21T05:55:56;27.80;;;16.00;;
68577;SDS011;61668;45.388;11.784;2023-03-21T05:58:22;28.40;;;15.30;;
68577;SDS011;61668;45.388;11.784;2023-03-21T06:00:48;28.20;;;15.20;;
68577;SDS011;61668;45.388;11.784;2023-03-21T06:03:13;27.60;;;15.80;;
68577;SDS011;61668;45.388;11.784;2023-03-21T06:05:39;27.70;;;16.30;;
68577;SDS011;61668;45.388;11.784;2023-03-21T06:08:05;28.30;;;15.70;;
68577;SDS011;61668;45.388;11.784;2023-03-21T06:10:31;31.30;;;16.50;;
68577;SDS011;61668;45.388;11.784;2023-03-21T06:12:56;36.70;;;17.60;;
68577;SDS011;61668;45.388;11.784;2023-03-21T06:15:22;41.70;;;19.20;;
68577;SDS011;61668;45.388;11.784;2023-03-21T06:17:48;42.50;;;19.40;;
68577;SDS011;61668;45.388;11.784;2023-03-21T06:20:13;38.10;;;19.60;;
68577;SDS011;61668;45.388;11.784;2023-03-21T06:22:39;38.50;;;18.70;;
68577;SDS011;61668;45.388;11.784;2023-03-21T06:25:06;42.30;;;20.60;;
68577;SDS011;61668;45.388;11.784;2023-03-21T06:27:33;51.00;;;21.10;;
68577;SDS011;61668;45.388;11.784;2023-03-21T06:29:59;53.30;;;19.70;;
68577;SDS011;61668;45.388;11.784;2023-03-21T06:32:25;50.10;;;20.50;;
68577;SDS011;61668;45.388;11.784;2023-03-21T06:34:51;43.90;;;21.20;;
68577;SDS011;61668;45.388;11.784;2023-03-21T06:37:17;49.90;;;21.70;;
68577;SDS011;61668;45.388;11.784;2023-03-21T06:39:43;50.10;;;21.80;;
68577;SDS011;61668;45.388;11.784;2023-03-21T06:42:09;43.00;;;20.60;;
68577;SDS011;61668;45.388;11.784;2023-03-21T06:44:36;44.40;;;22.90;;
68577;SDS011;61668;45.388;11.784;2023-03-21T06:47:02;54.90;;;24.90;;
68577;SDS011;61668;45.388;11.784;2023-03-21T06:49:27;45.20;;;23.90;;
68577;SDS011;61668;45.388;11.784;2023-03-21T06:51:53;47.20;;;24.40;;
68577;SDS011;61668;45.388;11.784;2023-03-21T06:54:19;49.60;;;23.90;;
68577;SDS011;61668;45.388;11.784;2023-03-21T06:56:45;56.00;;;24.60;;
68577;SDS011;61668;45.388;11.784;2023-03-21T06:59:11;45.20;;;23.90;;
68577;SDS011;61668;45.388;11.784;2023-03-21T07:01:38;51.30;;;22.90;;
68577;SDS011;61668;45.388;11.784;2023-03-21T07:04:04;44.50;;;21.60;;
68577;SDS011;61668;45.388;11.784;2023-03-21T07:06:31;43.60;;;22.60;;
68577;SDS011;61668;45.388;11.784;2023-03-21T07:08:57;44.90;;;20.80;;
68577;SDS011;61668;45.388;11.784;2023-03-21T07:11:23;53.50;;;21.70;;
68577;SDS011;61668;45.388;11.784;2023-03-21T07:13:50;38.80;;;20.20;;
68577;SDS011;61668;45.388;11.784;2023-03-21T07:16:17;46.80;;;21.70;;
68577;SDS011;61668;45.388;11.784;2023-03-21T07:18:45;41.40;;;20.90;;
68577;SDS011;61668;45.388;11.784;2023-03-21T07:21:12;42.80;;;21.40;;
68577;SDS011;61668;45.388;11.784;2023-03-21T07:23:38;41.30;;;21.20;;
68577;SDS011;61668;45.388;11.784;2023-03-21T07:26:04;44.20;;;22.30;;
68577;SDS011;61668;45.388;11.784;2023-03-21T07:28:31;40.10;;;21.50;;
68577;SDS011;61668;45.388;11.784;2023-03-21T07:31:00;47.80;;;21.70;;
68577;SDS011;61668;45.388;11.784;2023-03-21T07:33:27;37.80;;;20.10;;
68577;SDS011;61668;45.388;11.784;2023-03-21T07:35:53;40.40;;;21.00;;
68577;SDS011;61668;45.388;11.784;2023-03-21T07:38:20;36.30;;;20.50;;
68577;SDS011;61668;45.388;11.784;2023-03-21T07:40:47;41.70;;;21.50;;
68577;SDS011;61668;45.388;11.784;2023-03-21T07:43:14;41.80;;;20.20;;
68577;SDS011;61668;45.388;11.784;2023-03-21T07:45:40;41.20;;;22.60;;
68577;SDS011;61668;45.388;11.784;2023-03-21T07:48:07;39.90;;;21.90;;
68577;SDS011;61668;45.388;11.784;2023-03-21T07:50:34;46.60;;;25.00;;
68577;SDS011;61668;45.388;11.784;2023-03-21T07:53:00;49.70;;;26.50;;
68577;SDS011;61668;45.388;11.784;2023-03-21T07:55:26;56.30;;;28.90;;
68577;SDS011;61668;45.388;11.784;2023-03-21T07:57:52;56.70;;;30.50;;
68577;SDS011;61668;45.388;11.784;2023-03-21T08:00:19;51.70;;;28.80;;
68577;SDS011;61668;45.388;11.784;2023-03-21T08:02:51;39.20;;;22.40;;
68577;SDS011;61668;45.388;11.784;2023-03-21T08:05:21;32.90;;;19.90;;
68577;SDS011;61668;45.388;11.784;2023-03-21T08:07:48;33.70;;;19.60;;
68577;SDS011;61668;45.388;11.784;2023-03-21T08:10:15;37.90;;;20.30;;
68577;SDS011;61668;45.388;11.784;2023-03-21T08:12:41;34.70;;;19.30;;
68577;SDS011;61668;45.388;11.784;2023-03-21T08:15:07;34.40;;;20.80;;
68577;SDS011;61668;45.388;11.784;2023-03-21T08:17:33;33.00;;;20.10;;
68577;SDS011;61668;45.388;11.784;2023-03-21T08:20:06;33.60;;;18.80;;
68577;SDS011;61668;45.388;11.784;2023-03-21T08:22:34;29.90;;;18.10;;
68577;SDS011;61668;45.388;11.784;2023-03-21T08:25:02;30.50;;;17.70;;
68577;SDS011;61668;45.388;11.784;2023-03-21T08:27:29;31.60;;;19.00;;
68577;SDS011;61668;45.388;11.784;2023-03-21T08:29:56;30.90;;;19.90;;
68577;SDS011;61668;45.388;11.784;2023-03-21T08:32:22;34.70;;;22.10;;
68577;SDS011;61668;45.388;11.784;2023-03-21T08:34:57;34.90;;;20.60;;
68577;SDS011;61668;45.388;11.784;2023-03-21T08:37:25;34.20;;;21.80;;
68577;SDS011;61668;45.388;11.784;2023-03-21T08:39:51;32.30;;;20.50;;
68577;SDS011;61668;45.388;11.784;2023-03-21T08:42:17;32.10;;;21.20;;
68577;SDS011;61668;45.388;11.784;2023-03-21T08:44:43;34.90;;;21.50;;
68577;SDS011;61668;45.388;11.784;2023-03-21T08:47:09;34.60;;;22.70;;
68577;SDS011;61668;45.388;11.784;2023-03-21T08:49:35;32.90;;;21.10;;
68577;SDS011;61668;45.388;11.784;2023-03-21T08:52:01;38.00;;;23.10;;
68577;SDS011;61668;45.388;11.784;2023-03-21T08:54:26;35.90;;;23.80;;
68577;SDS011;61668;45.388;11.784;2023-03-21T08:56:52;42.00;;;26.20;;
68577;SDS011;61668;45.388;11.784;2023-03-21T08:59:18;40.70;;;26.10;;
68577;SDS011;61668;45.388;11.784;2023-03-21T09:01:44;45.10;;;28.10;;
68577;SDS011;61668;45.388;11.784;2023-03-21T09:04:09;43.90;;;27.30;;
68577;SDS011;61668;45.388;11.784;2023-03-21T09:06:36;45.30;;;30.00;;
68577;SDS011;61668;45.388;11.784;2023-03-21T09:09:03;48.80;;;30.90;;
68577;SDS011;61668;45.388;11.784;2023-03-21T09:11:31;45.00;;;30.10;;
68577;SDS011;61668;45.388;11.784;2023-03-21T09:13:57;41.90;;;28.60;;
68577;SDS011;61668;45.388;11.784;2023-03-21T09:16:23;45.80;;;29.70;;
68577;SDS011;61668;45.388;11.784;2023-03-21T09:18:49;47.10;;;31.70;;
68577;SDS011;61668;45.388;11.784;2023-03-21T09:21:21;45.40;;;30.30;;
68577;SDS011;61668;45.388;11.784;2023-03-21T09:23:49;44.40;;;30.70;;
68577;SDS011;61668;45.388;11.784;2023-03-21T09:26:18;45.50;;;31.20;;
68577;SDS011;61668;45.388;11.784;2023-03-21T09:28:44;44.90;;;31.10;;
68577;SDS011;61668;45.388;11.784;2023-03-21T09:31:13;45.40;;;29.70;;
68577;SDS011;61668;45.388;11.784;2023-03-21T09:33:41;42.90;;;28.80;;
68577;SDS011;61668;45.388;11.784;2023-03-21T09:36:09;46.60;;;29.70;;
68577;SDS011;61668;45.388;11.784;2023-03-21T09:38:45;41.80;;;28.20;;
68577;SDS011;61668;45.388;11.784;2023-03-21T09:47:29;42.90;;;29.50;;
68577;SDS011;61668;45.388;11.784;2023-03-21T09:50:11;44.50;;;30.20;;
68577;SDS011;61668;45.388;11.784;2023-03-21T09:55:31;40.20;;;26.40;;
68577;SDS011;61668;45.388;11.784;2023-03-21T09:58:14;37.30;;;25.40;;
68577;SDS011;61668;45.388;11.784;2023-03-21T10:01:08;39.40;;;26.60;;
68577;SDS011;61668;45.388;11.784;2023-03-21T10:03:47;38.40;;;26.30;;
68577;SDS011;61668;45.388;11.784;2023-03-21T10:06:15;39.10;;;24.80;;
68577;SDS011;61668;45.388;11.784;2023-03-21T10:08:45;33.40;;;22.80;;
68577;SDS011;61668;45.388;11.784;2023-03-21T10:11:18;32.90;;;23.70;;
68577;SDS011;61668;45.388;11.784;2023-03-21T10:14:00;36.50;;;24.10;;
68577;SDS011;61668;45.388;11.784;2023-03-21T10:16:31;38.90;;;26.80;;
68577;SDS011;61668;45.388;11.784;2023-03-21T10:19:14;36.00;;;23.80;;
68577;SDS011;61668;45.388;11.784;2023-03-21T10:21:45;35.40;;;24.50;;
68577;SDS011;61668;45.388;11.784;2023-03-21T10:24:19;33.60;;;23.50;;
68577;SDS011;61668;45.388;11.784;2023-03-21T10:26:49;33.80;;;22.50;;
68577;SDS011;61668;45.388;11.784;2023-03-21T10:29:16;33.10;;;21.90;;
68577;SDS011;61668;45.388;11.784;2023-03-21T10:31:46;34.30;;;23.10;;
68577;SDS011;61668;45.388;11.784;2023-03-21T10:36:53;39.00;;;25.40;;
68577;SDS011;61668;45.388;11.784;2023-03-21T10:39:34;38.90;;;25.10;;
68577;SDS011;61668;45.388;11.784;2023-03-21T10:42:02;34.50;;;22.90;;
68577;SDS011;61668;45.388;11.784;2023-03-21T10:44:30;39.20;;;26.80;;
68577;SDS011;61668;45.388;11.784;2023-03-21T10:47:03;30.20;;;20.30;;
68577;SDS011;61668;45.388;11.784;2023-03-21T10:49:31;27.70;;;18.40;;
68577;SDS011;61668;45.388;11.784;2023-03-21T10:51:58;27.30;;;18.00;;
68577;SDS011;61668;45.388;11.784;2023-03-21T10:54:30;28.40;;;19.60;;
68577;SDS011;61668;45.388;11.784;2023-03-21T10:57:02;30.70;;;20.40;;
68577;SDS011;61668;45.388;11.784;2023-03-21T10:59:42;28.50;;;18.60;;
68577;SDS011;61668;45.388;11.784;2023-03-21T11:02:33;27.10;;;19.10;;
68577;SDS011;61668;45.388;11.784;2023-03-21T11:05:07;29.50;;;18.90;;
68577;SDS011;61668;45.388;11.784;2023-03-21T11:07:42;28.30;;;18.50;;
68577;SDS011;61668;45.388;11.784;2023-03-21T11:10:26;26.30;;;17.30;;
68577;SDS011;61668;45.388;11.784;2023-03-21T11:13:01;25.40;;;15.90;;
68577;SDS011;61668;45.388;11.784;2023-03-21T11:15:54;24.40;;;16.30;;
68577;SDS011;61668;45.388;11.784;2023-03-21T11:18:25;23.80;;;16.70;;
68577;SDS011;61668;45.388;11.784;2023-03-21T11:20:54;27.70;;;17.80;;
68577;SDS011;61668;45.388;11.784;2023-03-21T11:23:26;24.30;;;16.70;;
68577;SDS011;61668;45.388;11.784;2023-03-21T11:25:54;24.30;;;16.20;;
68577;SDS011;61668;45.388;11.784;2023-03-21T11:28:24;23.60;;;16.10;;
68577;SDS011;61668;45.388;11.784;2023-03-21T11:30:59;27.80;;;18.00;;
68577;SDS011;61668;45.388;11.784;2023-03-21T11:33:38;23.90;;;16.00;;
68577;SDS011;61668;45.388;11.784;2023-03-21T11:38:43;21.30;;;14.90;;
68577;SDS011;61668;45.388;11.784;2023-03-21T11:41:24;19.70;;;13.00;;
68577;SDS011;61668;45.388;11.784;2023-03-21T11:43:54;23.20;;;15.40;;
68577;SDS011;61668;45.388;11.784;2023-03-21T11:46:28;22.70;;;14.60;;
68577;SDS011;61668;45.388;11.784;2023-03-21T11:48:58;24.40;;;15.10;;
68577;SDS011;61668;45.388;11.784;2023-03-21T12:06:24;21.00;;;14.60;;
68577;SDS011;61668;45.388;11.784;2023-03-21T12:12:02;26.30;;;15.90;;
68577;SDS011;61668;45.388;11.784;2023-03-21T12:14:50;22.10;;;13.90;;
68577;SDS011;61668;45.388;11.784;2023-03-21T12:20:34;26.20;;;16.50;;
68577;SDS011;61668;45.388;11.784;2023-03-21T12:26:22;26.70;;;17.80;;
68577;SDS011;61668;45.388;11.784;2023-03-21T12:41:15;25.60;;;16.70;;
68577;SDS011;61668;45.388;11.784;2023-03-21T12:43:52;28.40;;;19.70;;
68577;SDS011;61668;45.388;11.784;2023-03-21T12:49:15;28.40;;;17.90;;
68577;SDS011;61668;45.388;11.784;2023-03-21T12:52:15;28.00;;;18.50;;
68577;SDS011;61668;45.388;11.784;2023-03-21T12:54:59;39.10;;;27.30;;
68577;SDS011;61668;45.388;11.784;2023-03-21T12:57:46;27.80;;;18.10;;
68577;SDS011;61668;45.388;11.784;2023-03-21T13:03:29;40.90;;;23.20;;
68577;SDS011;61668;45.388;11.784;2023-03-21T13:06:01;30.50;;;19.70;;
68577;SDS011;61668;45.388;11.784;2023-03-21T13:09:12;29.00;;;19.10;;
68577;SDS011;61668;45.388;11.784;2023-03-21T13:12:01;30.10;;;19.20;;
68577;SDS011;61668;45.388;11.784;2023-03-21T13:14:38;29.30;;;17.70;;
68577;SDS011;61668;45.388;11.784;2023-03-21T13:17:18;30.70;;;19.00;;
68577;SDS011;61668;45.388;11.784;2023-03-21T13:20:00;30.80;;;20.10;;
68577;SDS011;61668;45.388;11.784;2023-03-21T13:22:32;27.00;;;17.00;;
68577;SDS011;61668;45.388;11.784;2023-03-21T13:25:18;29.80;;;18.70;;
68577;SDS011;61668;45.388;11.784;2023-03-21T13:28:03;28.70;;;17.20;;
68577;SDS011;61668;45.388;11.784;2023-03-21T13:30:30;33.70;;;20.10;;
68577;SDS011;61668;45.388;11.784;2023-03-21T13:33:04;36.30;;;21.70;;
68577;SDS011;61668;45.388;11.784;2023-03-21T13:35:37;27.40;;;17.30;;
68577;SDS011;61668;45.388;11.784;2023-03-21T13:40:40;33.90;;;20.10;;
68577;SDS011;61668;45.388;11.784;2023-03-21T13:46:08;32.60;;;18.70;;
68577;SDS011;61668;45.388;11.784;2023-03-21T13:51:36;24.30;;;16.00;;
68577;SDS011;61668;45.388;11.784;2023-03-21T13:54:27;20.70;;;13.60;;
68577;SDS011;61668;45.388;11.784;2023-03-21T13:56:57;18.70;;;11.30;;
68577;SDS011;61668;45.388;11.784;2023-03-21T14:05:04;21.70;;;14.40;;
68577;SDS011;61668;45.388;11.784;2023-03-21T14:07:34;17.80;;;11.50;;
68577;SDS011;61668;45.388;11.784;2023-03-21T14:12:56;16.80;;;10.70;;
68577;SDS011;61668;45.388;11.784;2023-03-21T14:15:35;16.30;;;10.80;;
68577;SDS011;61668;45.388;11.784;2023-03-21T14:18:06;20.70;;;12.20;;
68577;SDS011;61668;45.388;11.784;2023-03-21T14:20:34;18.50;;;11.30;;
68577;SDS011;61668;45.388;11.784;2023-03-21T14:23:04;13.20;;;7.30;;
68577;SDS011;61668;45.388;11.784;2023-03-21T14:25:36;15.30;;;9.70;;
68577;SDS011;61668;45.388;11.784;2023-03-21T14:28:07;16.70;;;9.90;;
68577;SDS011;61668;45.388;11.784;2023-03-21T14:30:39;21.60;;;11.00;;
68577;SDS011;61668;45.388;11.784;2023-03-21T14:33:34;17.40;;;11.10;;
68577;SDS011;61668;45.388;11.784;2023-03-21T14:36:25;15.90;;;9.20;;
68577;SDS011;61668;45.388;11.784;2023-03-21T14:41:25;18.00;;;10.40;;
68577;SDS011;61668;45.388;11.784;2023-03-21T14:44:13;19.70;;;11.10;;
68577;SDS011;61668;45.388;11.784;2023-03-21T14:46:40;30.90;;;16.10;;
68577;SDS011;61668;45.388;11.784;2023-03-21T14:49:33;24.10;;;12.70;;
68577;SDS011;61668;45.388;11.784;2023-03-21T14:52:02;23.40;;;13.30;;
68577;SDS011;61668;45.388;11.784;2023-03-21T14:54:30;48.80;;;23.40;;
68577;SDS011;61668;45.388;11.784;2023-03-21T14:57:02;29.30;;;16.20;;
68577;SDS011;61668;45.388;11.784;2023-03-21T14:59:33;24.60;;;13.30;;
68577;SDS011;61668;45.388;11.784;2023-03-21T15:02:04;30.00;;;15.80;;
68577;SDS011;61668;45.388;11.784;2023-03-21T15:04:47;82.10;;;44.30;;
68577;SDS011;61668;45.388;11.784;2023-03-21T15:07:31;32.80;;;19.40;;
68577;SDS011;61668;45.388;11.784;2023-03-21T15:10:04;18.30;;;11.00;;
68577;SDS011;61668;45.388;11.784;2023-03-21T15:12:33;24.30;;;14.40;;
68577;SDS011;61668;45.388;11.784;2023-03-21T15:14:59;33.50;;;18.30;;
68577;SDS011;61668;45.388;11.784;2023-03-21T15:17:26;23.30;;;12.50;;
68577;SDS011;61668;45.388;11.784;2023-03-21T15:19:52;22.80;;;14.00;;
68577;SDS011;61668;45.388;11.784;2023-03-21T15:22:35;37.20;;;21.60;;
68577;SDS011;61668;45.388;11.784;2023-03-21T15:25:06;22.40;;;13.00;;
68577;SDS011;61668;45.388;11.784;2023-03-21T15:27:39;23.80;;;14.50;;
68577;SDS011;61668;45.388;11.784;2023-03-21T15:30:24;60.60;;;37.60;;
68577;SDS011;61668;45.388;11.784;2023-03-21T15:32:53;70.50;;;42.10;;
68577;SDS011;61668;45.388;11.784;2023-03-21T15:35:25;28.10;;;16.60;;
68577;SDS011;61668;45.388;11.784;2023-03-21T15:37:59;40.50;;;22.40;;
68577;SDS011;61668;45.388;11.784;2023-03-21T15:40:28;37.00;;;21.20;;
68577;SDS011;61668;45.388;11.784;2023-03-21T15:43:06;33.10;;;18.80;;
68577;SDS011;61668;45.388;11.784;2023-03-21T15:45:49;24.80;;;14.20;;
68577;SDS011;61668;45.388;11.784;2023-03-21T15:48:15;21.90;;;11.70;;
68577;SDS011;61668;45.388;11.784;2023-03-21T15:50:58;21.30;;;11.80;;
68577;SDS011;61668;45.388;11.784;2023-03-21T15:53:33;73.40;;;35.00;;
68577;SDS011;61668;45.388;11.784;2023-03-21T15:56:01;49.80;;;26.80;;
68577;SDS011;61668;45.388;11.784;2023-03-21T15:58:38;37.90;;;20.90;;
68577;SDS011;61668;45.388;11.784;2023-03-21T16:01:20;27.60;;;16.90;;
68577;SDS011;61668;45.388;11.784;2023-03-21T16:03:54;27.00;;;15.70;;
68577;SDS011;61668;45.388;11.784;2023-03-21T16:06:22;23.40;;;14.40;;
68577;SDS011;61668;45.388;11.784;2023-03-21T16:14:07;25.10;;;15.20;;
68577;SDS011;61668;45.388;11.784;2023-03-21T16:16:34;39.00;;;23.20;;
68577;SDS011;61668;45.388;11.784;2023-03-21T16:19:00;32.90;;;19.50;;
68577;SDS011;61668;45.388;11.784;2023-03-21T16:21:28;22.20;;;13.40;;
68577;SDS011;61668;45.388;11.784;2023-03-21T16:23:56;24.00;;;14.30;;
68577;SDS011;61668;45.388;11.784;2023-03-21T16:26:24;25.90;;;15.60;;
68577;SDS011;61668;45.388;11.784;2023-03-21T16:28:54;24.10;;;14.00;;
68577;SDS011;61668;45.388;11.784;2023-03-21T16:31:22;22.20;;;13.30;;